createdAt,value
2023-12-05T00:00:03.862Z,21.33
2023-12-05T00:02:30.282Z,19.00
2023-12-05T00:04:56.805Z,22.90
2023-12-05T00:07:24.888Z,21.30
2023-12-05T00:09:51.498Z,20.63
2023-12-05T00:12:18.028Z,16.80
2023-12-05T00:14:45.342Z,18.13
2023-12-05T00:17:11.784Z,19.53
2023-12-05T00:19:38.346Z,18.47
2023-12-05T00:22:05.090Z,16.90
2023-12-05T00:24:31.648Z,18.03
2023-12-05T00:26:58.127Z,16.93
2023-12-05T00:29:24.656Z,15.13
2023-12-05T00:31:51.063Z,18.23
2023-12-05T00:34:17.551Z,15.50
2023-12-05T00:36:44.108Z,15.60
2023-12-05T00:39:10.549Z,15.03
2023-12-05T00:41:36.974Z,15.57
2023-12-05T00:44:03.404Z,16.30
2023-12-05T00:46:29.840Z,14.47
2023-12-05T00:48:56.367Z,17.20
2023-12-05T00:51:22.908Z,16.57
2023-12-05T00:53:49.556Z,15.57
2023-12-05T00:56:16.097Z,15.43
2023-12-05T00:58:42.995Z,16.80
2023-12-05T01:01:09.537Z,16.90
2023-12-05T01:03:36.429Z,15.90
2023-12-05T01:06:03.111Z,15.00
2023-12-05T01:08:29.526Z,17.33
2023-12-05T01:10:56.303Z,16.53
2023-12-05T01:13:22.863Z,17.13
2023-12-05T01:15:49.418Z,15.83
2023-12-05T01:18:16.104Z,18.27
2023-12-05T01:20:42.799Z,17.20
2023-12-05T01:23:09.290Z,17.00
2023-12-05T01:25:36.075Z,16.43
2023-12-05T01:28:03.742Z,17.23
2023-12-05T01:30:30.219Z,16.43
2023-12-05T01:32:56.782Z,17.37
2023-12-05T01:35:23.240Z,16.07
2023-12-05T01:37:49.656Z,15.90
2023-12-05T01:40:16.165Z,16.00
2023-12-05T01:42:42.841Z,17.77
2023-12-05T01:45:09.895Z,16.43
2023-12-05T01:47:37.353Z,16.73
2023-12-05T01:50:05.663Z,16.10
2023-12-05T01:52:32.610Z,17.20
2023-12-05T01:54:59.051Z,15.63
2023-12-05T01:57:26.651Z,16.43
2023-12-05T01:59:54.005Z,16.57
2023-12-05T02:02:20.530Z,18.77
2023-12-05T02:04:47.278Z,19.30
2023-12-05T02:07:14.966Z,17.83
2023-12-05T02:09:41.484Z,15.70
2023-12-05T02:12:08.478Z,17.90
2023-12-05T02:14:34.957Z,15.70
2023-12-05T02:17:20.045Z,15.63
2023-12-05T02:19:51.116Z,15.60
2023-12-05T02:22:55.520Z,15.50
2023-12-05T02:25:24.945Z,16.43
2023-12-05T02:27:52.380Z,17.50
2023-12-05T02:30:18.981Z,18.40
2023-12-05T02:32:45.663Z,17.50
2023-12-05T02:35:13.996Z,16.07
2023-12-05T02:38:06.368Z,17.60
2023-12-05T02:40:41.902Z,17.97
2023-12-05T02:43:19.474Z,18.40
2023-12-05T02:45:47.771Z,19.20
2023-12-05T02:48:14.777Z,20.37
2023-12-05T02:50:41.386Z,21.07
2023-12-05T02:53:07.827Z,22.10
2023-12-05T02:55:34.507Z,20.93
2023-12-05T02:58:00.939Z,22.20
2023-12-05T03:00:27.451Z,22.60
2023-12-05T03:02:53.923Z,21.10
2023-12-05T03:05:20.384Z,21.30
2023-12-05T03:07:46.898Z,21.60
2023-12-05T03:10:13.413Z,20.00
2023-12-05T03:12:39.892Z,21.00
2023-12-05T03:15:07.214Z,20.67
2023-12-05T03:17:33.866Z,19.40
2023-12-05T03:20:00.492Z,19.97
2023-12-05T03:22:27.529Z,21.40
2023-12-05T03:24:55.687Z,21.70
2023-12-05T03:27:22.206Z,21.67
2023-12-05T03:29:48.633Z,21.23
2023-12-05T03:32:15.085Z,20.40
2023-12-05T03:34:41.575Z,18.90
2023-12-05T03:37:08.058Z,18.53
2023-12-05T03:39:34.552Z,19.43
2023-12-05T03:42:01.037Z,20.67
2023-12-05T03:44:27.484Z,21.10
2023-12-05T03:46:53.974Z,20.50
2023-12-05T03:49:20.495Z,18.87
2023-12-05T03:51:47.046Z,19.40
2023-12-05T03:54:13.740Z,18.40
2023-12-05T03:56:40.276Z,19.10
2023-12-05T03:59:06.754Z,19.40
2023-12-05T04:01:33.243Z,14.90
2023-12-05T04:03:59.844Z,14.33
2023-12-05T04:06:26.518Z,12.13
2023-12-05T04:08:53.026Z,12.80
2023-12-05T04:11:29.495Z,10.20
2023-12-05T04:13:56.243Z,11.00
2023-12-05T04:16:22.638Z,10.87
2023-12-05T04:18:49.195Z,11.30
2023-12-05T04:21:16.959Z,11.60
2023-12-05T04:23:43.417Z,9.97
2023-12-05T04:26:09.861Z,10.60
2023-12-05T04:28:36.353Z,10.30
2023-12-05T04:31:02.993Z,9.80
2023-12-05T04:33:29.476Z,11.13
2023-12-05T04:35:56.468Z,11.30
2023-12-05T04:38:22.856Z,7.90
2023-12-05T04:40:49.278Z,10.03
2023-12-05T04:43:15.855Z,10.27
2023-12-05T04:45:43.334Z,9.07
2023-12-05T04:48:10.215Z,9.13
2023-12-05T04:50:36.682Z,7.43
2023-12-05T04:53:03.355Z,7.60
2023-12-05T04:55:29.797Z,7.40
2023-12-05T04:57:56.329Z,8.30
2023-12-05T05:00:22.803Z,7.67
2023-12-05T05:02:49.298Z,9.23
2023-12-05T05:05:15.930Z,8.93
2023-12-05T05:07:42.471Z,8.80
2023-12-05T05:10:09.476Z,9.40
2023-12-05T05:12:36.073Z,9.63
2023-12-05T05:15:02.553Z,8.53
2023-12-05T05:17:29.015Z,9.87
2023-12-05T05:19:55.543Z,9.70
2023-12-05T05:22:21.999Z,9.10
2023-12-05T05:24:48.544Z,9.53
2023-12-05T05:27:15.200Z,9.13
2023-12-05T05:29:41.739Z,8.33
2023-12-05T05:32:08.258Z,7.20
2023-12-05T05:34:34.819Z,7.30
2023-12-05T05:37:01.409Z,7.50
2023-12-05T05:39:27.966Z,8.23
2023-12-05T05:41:54.450Z,8.67
2023-12-05T05:44:21.006Z,8.30
2023-12-05T05:46:47.612Z,8.53
2023-12-05T05:49:14.501Z,7.60
2023-12-05T05:51:41.067Z,8.33
2023-12-05T05:54:07.588Z,8.63
2023-12-05T05:56:40.596Z,8.40
2023-12-05T05:59:07.566Z,7.93
2023-12-05T06:01:34.040Z,6.97
2023-12-05T06:04:00.620Z,6.83
2023-12-05T06:06:27.295Z,6.27
2023-12-05T06:08:53.958Z,6.80
2023-12-05T06:11:21.347Z,7.77
2023-12-05T06:13:47.787Z,7.30
2023-12-05T06:16:14.244Z,6.80
2023-12-05T06:18:40.873Z,6.57
2023-12-05T06:21:07.635Z,7.33
2023-12-05T06:23:34.117Z,6.90
2023-12-05T06:26:00.562Z,6.63
2023-12-05T06:28:26.976Z,6.60
2023-12-05T06:30:53.521Z,6.87
2023-12-05T06:33:20.120Z,6.07
2023-12-05T06:35:46.657Z,7.07
2023-12-05T06:38:14.629Z,6.60
2023-12-05T06:40:41.525Z,5.63
2023-12-05T06:43:08.754Z,6.20
2023-12-05T06:45:35.821Z,5.60
2023-12-05T06:48:03.848Z,6.80
2023-12-05T06:50:31.813Z,6.87
2023-12-05T06:52:58.548Z,6.70
2023-12-05T06:55:25.385Z,6.87
2023-12-05T06:57:51.824Z,7.83
2023-12-05T07:00:19.678Z,6.67
2023-12-05T07:02:46.114Z,7.63
2023-12-05T07:05:12.782Z,7.00
2023-12-05T07:07:39.352Z,7.30
2023-12-05T07:10:07.064Z,6.90
2023-12-05T07:12:34.974Z,7.60
2023-12-05T07:15:01.646Z,7.07
2023-12-05T07:17:28.172Z,6.73
2023-12-05T07:19:54.764Z,6.37
2023-12-05T07:22:21.214Z,5.47
2023-12-05T07:24:47.676Z,6.67
2023-12-05T07:27:14.382Z,6.00
2023-12-05T07:29:40.879Z,6.10
2023-12-05T07:32:07.372Z,6.20
2023-12-05T07:34:33.874Z,6.40
2023-12-05T07:37:00.632Z,6.60
2023-12-05T07:39:27.827Z,6.80
2023-12-05T07:41:54.280Z,6.63
2023-12-05T07:44:21.500Z,6.80
2023-12-05T07:46:47.913Z,6.10
2023-12-05T07:49:14.469Z,5.87
2023-12-05T07:51:40.940Z,6.53
2023-12-05T07:54:12.367Z,5.70
2023-12-05T07:56:38.817Z,6.20
2023-12-05T07:59:05.317Z,7.20
2023-12-05T08:01:31.825Z,4.47
2023-12-05T08:03:59.006Z,4.40
2023-12-05T08:06:25.633Z,4.30
2023-12-05T08:08:52.326Z,3.83
2023-12-05T08:11:20.279Z,3.63
2023-12-05T08:13:48.671Z,3.70
2023-12-05T08:16:15.071Z,3.63
2023-12-05T08:18:41.664Z,4.00
2023-12-05T08:21:08.546Z,3.20
2023-12-05T08:23:35.030Z,3.13
2023-12-05T08:26:01.522Z,3.30
2023-12-05T08:28:29.717Z,3.17
2023-12-05T08:30:56.437Z,3.23
2023-12-05T08:33:23.492Z,3.07
2023-12-05T08:35:49.968Z,3.50
2023-12-05T08:38:16.361Z,3.47
2023-12-05T08:40:42.926Z,4.10
2023-12-05T08:43:09.347Z,3.77
2023-12-05T08:45:35.751Z,3.80
2023-12-05T08:48:02.291Z,4.70
2023-12-05T08:50:28.717Z,4.57
2023-12-05T08:52:55.724Z,4.80
2023-12-05T08:55:22.577Z,4.60
2023-12-05T08:57:49.092Z,4.77
2023-12-05T09:00:16.254Z,4.37
2023-12-05T09:02:42.669Z,3.73
2023-12-05T09:05:09.308Z,4.00
2023-12-05T09:07:36.076Z,3.07
2023-12-05T09:10:02.700Z,3.33
2023-12-05T09:12:29.165Z,2.77
2023-12-05T09:14:55.844Z,2.67
2023-12-05T09:17:22.388Z,4.40
2023-12-05T09:19:50.330Z,3.27
2023-12-05T09:22:16.962Z,2.90
2023-12-05T09:24:43.424Z,3.77
2023-12-05T09:27:09.913Z,2.90
2023-12-05T09:29:49.307Z,3.57
2023-12-05T09:32:18.034Z,4.20
2023-12-05T09:34:45.443Z,4.00
2023-12-05T09:37:11.961Z,4.17
2023-12-05T09:39:38.392Z,4.27
2023-12-05T09:42:07.852Z,3.90
2023-12-05T09:44:35.149Z,3.70
2023-12-05T09:47:07.209Z,3.70
2023-12-05T09:49:34.097Z,2.80
2023-12-05T09:52:01.151Z,3.13
2023-12-05T09:54:28.076Z,4.37
2023-12-05T09:56:59.136Z,5.00
2023-12-05T09:59:25.671Z,4.30
2023-12-05T10:01:56.592Z,4.57
2023-12-05T10:04:23.506Z,4.10
2023-12-05T10:06:51.377Z,3.70
2023-12-05T10:09:18.658Z,3.40
2023-12-05T10:11:45.919Z,3.10
2023-12-05T10:14:12.719Z,3.60
2023-12-05T10:16:39.677Z,3.90
2023-12-05T10:19:09.644Z,3.00
2023-12-05T10:21:37.166Z,2.83
2023-12-05T10:24:04.336Z,3.83
2023-12-05T10:26:31.216Z,3.53
2023-12-05T10:28:57.896Z,3.83
2023-12-05T10:31:27.302Z,3.83
2023-12-05T10:34:05.255Z,3.60
2023-12-05T10:36:31.774Z,3.47
2023-12-05T10:38:58.158Z,3.50
2023-12-05T10:41:25.819Z,4.03
2023-12-05T10:43:57.249Z,2.70
2023-12-05T10:46:27.539Z,2.70
2023-12-05T10:48:55.259Z,2.50
2023-12-05T10:51:25.598Z,2.60
2023-12-05T10:53:53.821Z,2.40
2023-12-05T10:56:20.735Z,2.20
2023-12-05T10:58:48.760Z,2.30
2023-12-05T11:01:15.690Z,1.90
2023-12-05T11:03:42.852Z,2.10
2023-12-05T11:06:10.084Z,2.03
2023-12-05T11:08:37.872Z,2.30
2023-12-05T11:11:05.612Z,2.20
2023-12-05T11:13:36.194Z,2.13
2023-12-05T11:16:11.360Z,2.00
2023-12-05T11:18:44.734Z,1.80
2023-12-05T11:21:52.713Z,2.00
2023-12-05T11:24:51.741Z,1.90
2023-12-05T11:27:53.421Z,2.23
2023-12-05T11:30:27.043Z,2.10
2023-12-05T11:33:15.955Z,1.90
2023-12-05T11:35:59.093Z,2.13
2023-12-05T11:38:26.303Z,1.87
2023-12-05T11:41:15.298Z,1.90
2023-12-05T11:43:44.943Z,1.97
2023-12-05T11:46:11.546Z,2.00
2023-12-05T11:48:38.227Z,1.80
2023-12-05T11:51:04.826Z,2.20
2023-12-05T11:53:31.541Z,2.23
2023-12-05T11:55:58.414Z,2.27
2023-12-05T11:58:35.655Z,2.10
2023-12-05T12:01:04.481Z,2.00
2023-12-05T12:03:51.107Z,1.53
2023-12-05T12:06:22.221Z,1.73
2023-12-05T12:08:51.442Z,1.50
2023-12-05T12:11:18.858Z,1.97
2023-12-05T12:13:45.310Z,1.73
2023-12-05T12:16:20.004Z,2.00
2023-12-05T12:18:53.446Z,1.83
2023-12-05T12:21:28.247Z,1.67
2023-12-05T12:23:59.286Z,2.00
2023-12-05T12:26:26.762Z,2.07
2023-12-05T12:28:53.250Z,2.43
2023-12-05T12:31:28.849Z,1.80
2023-12-05T12:33:57.596Z,1.67
2023-12-05T12:36:25.041Z,2.23
2023-12-05T12:38:51.618Z,1.63
2023-12-05T12:41:18.476Z,2.00
2023-12-05T12:43:45.108Z,2.40
2023-12-05T12:46:11.563Z,2.37
2023-12-05T12:48:38.260Z,1.90
2023-12-05T12:51:07.076Z,2.07
2023-12-05T12:53:33.527Z,2.30
2023-12-05T12:56:00.383Z,2.60
2023-12-05T12:58:36.584Z,1.83
2023-12-05T13:01:05.017Z,2.03
2023-12-05T13:03:33.546Z,2.17
2023-12-05T13:06:01.809Z,1.60
2023-12-05T13:08:28.477Z,1.80
2023-12-05T13:10:56.410Z,2.03
2023-12-05T13:13:22.918Z,1.60
2023-12-05T13:15:49.928Z,1.83
2023-12-05T13:18:17.117Z,1.53
2023-12-05T13:20:53.211Z,1.70
2023-12-05T13:23:21.041Z,1.87
2023-12-05T13:25:47.680Z,1.67
2023-12-05T13:28:14.673Z,1.40
2023-12-05T13:30:42.714Z,1.93
2023-12-05T13:33:12.956Z,1.60
2023-12-05T13:35:40.521Z,1.70
2023-12-05T13:38:08.650Z,1.50
2023-12-05T13:40:35.193Z,1.80
2023-12-05T13:43:01.745Z,2.27
2023-12-05T13:45:28.364Z,2.20
2023-12-05T13:47:54.875Z,1.70
2023-12-05T13:50:21.327Z,1.50
2023-12-05T13:52:47.772Z,1.60
2023-12-05T13:55:14.241Z,1.57
2023-12-05T13:57:40.826Z,1.40
2023-12-05T14:00:09.305Z,1.37
2023-12-05T14:02:35.796Z,2.10
2023-12-05T14:05:02.548Z,1.37
2023-12-05T14:07:29.125Z,1.93
2023-12-05T14:09:55.775Z,1.47
2023-12-05T14:12:22.356Z,1.43
2023-12-05T14:14:48.822Z,1.90
2023-12-05T14:17:15.602Z,1.97
2023-12-05T14:19:42.421Z,1.60
2023-12-05T14:22:08.964Z,1.40
2023-12-05T14:24:35.553Z,1.40
2023-12-05T14:27:02.805Z,1.30
2023-12-05T14:29:29.291Z,1.70
2023-12-05T14:31:55.821Z,1.87
2023-12-05T14:34:22.510Z,1.73
2023-12-05T14:36:49.694Z,1.47
2023-12-05T14:39:18.354Z,1.60
2023-12-05T14:41:49.652Z,1.53
2023-12-05T14:44:16.294Z,1.20
2023-12-05T14:46:42.883Z,1.57
2023-12-05T14:49:09.586Z,1.70
2023-12-05T14:51:36.682Z,2.57
2023-12-05T14:54:03.273Z,2.30
2023-12-05T14:56:29.709Z,1.57
2023-12-05T14:58:56.149Z,1.93
2023-12-05T15:01:22.771Z,1.50
2023-12-05T15:03:51.084Z,1.40
2023-12-05T15:06:17.850Z,1.40
2023-12-05T15:08:44.291Z,2.07
2023-12-05T15:11:10.739Z,3.10
2023-12-05T15:13:37.189Z,1.97
2023-12-05T15:16:03.973Z,1.20
2023-12-05T15:18:30.565Z,1.80
2023-12-05T15:20:57.463Z,1.40
2023-12-05T15:23:24.140Z,1.40
2023-12-05T15:25:51.097Z,2.20
2023-12-05T15:28:17.935Z,2.07
2023-12-05T15:30:44.514Z,1.93
2023-12-05T15:33:11.143Z,2.03
2023-12-05T15:35:37.650Z,1.87
2023-12-05T15:39:24.454Z,2.10
2023-12-05T15:43:11.142Z,1.80
2023-12-05T15:45:38.643Z,1.77
2023-12-05T15:48:06.878Z,1.80
2023-12-05T15:50:33.497Z,2.07
2023-12-05T15:53:02.328Z,1.87
2023-12-05T15:55:28.818Z,1.60
2023-12-05T15:57:55.290Z,2.07
2023-12-05T16:00:21.889Z,1.90
2023-12-05T16:02:48.335Z,2.07
2023-12-05T16:05:14.874Z,1.60
2023-12-05T16:07:41.596Z,1.77
2023-12-05T16:10:08.939Z,2.37
2023-12-05T16:12:35.564Z,2.13
2023-12-05T16:15:03.530Z,2.00
2023-12-05T16:17:30.552Z,2.03
2023-12-05T16:19:57.418Z,2.87
2023-12-05T16:22:23.943Z,2.33
2023-12-05T16:24:50.414Z,2.37
2023-12-05T16:27:17.165Z,2.37
2023-12-05T16:29:44.772Z,1.83
2023-12-05T16:32:11.557Z,1.47
2023-12-05T16:34:38.553Z,1.80
2023-12-05T16:37:05.089Z,1.87
2023-12-05T16:39:32.490Z,1.63
2023-12-05T16:41:58.950Z,1.43
2023-12-05T16:44:25.356Z,1.83
2023-12-05T16:46:51.745Z,1.70
2023-12-05T16:49:18.344Z,1.60
2023-12-05T16:51:45.045Z,1.63
2023-12-05T16:54:11.555Z,2.20
2023-12-05T16:56:37.973Z,1.93
2023-12-05T16:59:04.437Z,2.43
2023-12-05T17:01:31.027Z,1.87
2023-12-05T17:03:57.647Z,2.20
2023-12-05T17:06:24.292Z,1.97
2023-12-05T17:08:50.807Z,2.20
2023-12-05T17:11:17.275Z,2.40
2023-12-05T17:13:43.742Z,2.00
2023-12-05T17:16:10.346Z,1.70
2023-12-05T17:18:37.265Z,2.27
2023-12-05T17:21:04.195Z,2.03
2023-12-05T17:23:32.016Z,2.30
2023-12-05T17:25:58.688Z,2.03
2023-12-05T17:28:25.322Z,2.23
2023-12-05T17:30:51.767Z,2.63
2023-12-05T17:33:18.825Z,2.23
2023-12-05T17:35:45.447Z,2.20
2023-12-05T17:38:13.220Z,2.40
2023-12-05T17:40:39.628Z,2.63
2023-12-05T17:43:06.166Z,2.50
2023-12-05T17:45:32.692Z,2.50
2023-12-05T17:47:59.946Z,2.77
2023-12-05T17:50:26.469Z,2.53
2023-12-05T17:52:53.621Z,3.33
2023-12-05T17:55:20.040Z,2.87
2023-12-05T17:57:46.474Z,2.83
2023-12-05T18:00:13.932Z,2.73
2023-12-05T18:02:40.669Z,3.07
2023-12-05T18:05:07.874Z,3.10
2023-12-05T18:07:53.567Z,2.93
2023-12-05T18:10:20.780Z,2.83
2023-12-05T18:12:47.532Z,3.23
2023-12-05T18:15:14.322Z,3.80
2023-12-05T18:17:41.713Z,2.73
2023-12-05T18:20:09.847Z,3.77
2023-12-05T18:22:36.438Z,4.00
2023-12-05T18:25:07.536Z,3.20
2023-12-05T18:27:34.435Z,2.87
2023-12-05T18:30:01.333Z,3.50
2023-12-05T18:32:28.557Z,3.23
2023-12-05T18:34:55.437Z,2.80
2023-12-05T18:37:22.341Z,3.27
2023-12-05T18:39:49.036Z,3.30
2023-12-05T18:42:15.479Z,3.10
2023-12-05T18:44:42.096Z,2.67
2023-12-05T18:47:08.478Z,3.00
2023-12-05T18:49:35.122Z,3.00
2023-12-05T18:52:02.102Z,3.47
2023-12-05T18:54:28.619Z,3.13
2023-12-05T18:56:55.038Z,3.23
2023-12-05T18:59:21.517Z,3.67
2023-12-05T19:01:48.683Z,3.40
2023-12-05T19:04:15.421Z,3.73
2023-12-05T19:06:41.942Z,3.60
2023-12-05T19:09:08.464Z,3.40
2023-12-05T19:11:35.501Z,3.00
2023-12-05T19:14:03.480Z,2.87
2023-12-05T19:16:29.919Z,2.60
2023-12-05T19:18:56.719Z,3.83
2023-12-05T19:21:23.269Z,3.10
2023-12-05T19:23:49.645Z,3.17
2023-12-05T19:26:27.021Z,2.80
2023-12-05T19:28:57.640Z,2.53
2023-12-05T19:31:24.612Z,3.73
2023-12-05T19:33:51.548Z,2.87
2023-12-05T19:36:18.103Z,2.80
2023-12-05T19:38:44.591Z,2.80
2023-12-05T19:41:10.972Z,3.03
2023-12-05T19:43:37.397Z,2.67
2023-12-05T19:46:04.008Z,3.73
2023-12-05T19:48:31.066Z,3.50
2023-12-05T19:50:57.505Z,3.00
2023-12-05T19:53:23.963Z,2.70
2023-12-05T19:55:54.436Z,3.40
2023-12-05T19:58:20.840Z,3.33
2023-12-05T20:00:47.270Z,3.30
2023-12-05T20:03:13.766Z,3.43
2023-12-05T20:05:40.553Z,3.13
2023-12-05T20:08:08.362Z,3.43
2023-12-05T20:10:35.476Z,2.80
2023-12-05T20:13:01.895Z,3.20
2023-12-05T20:15:30.596Z,2.50
2023-12-05T20:17:57.834Z,3.37
2023-12-05T20:20:24.292Z,3.40
2023-12-05T20:22:50.680Z,2.70
2023-12-05T20:25:17.511Z,2.97
2023-12-05T20:27:46.113Z,2.60
2023-12-05T20:30:12.603Z,2.57
2023-12-05T20:32:39.003Z,2.83
2023-12-05T20:35:06.076Z,2.73
2023-12-05T20:37:32.480Z,2.80
2023-12-05T20:39:59.639Z,2.77
2023-12-05T20:42:28.162Z,3.00
2023-12-05T20:44:55.091Z,2.90
2023-12-05T20:47:21.651Z,2.90
2023-12-05T20:49:48.403Z,2.93
2023-12-05T20:52:15.042Z,2.87
2023-12-05T20:54:41.479Z,2.70
2023-12-05T20:57:08.250Z,2.73
2023-12-05T20:59:36.805Z,2.70
2023-12-05T21:02:04.758Z,2.90
2023-12-05T21:04:31.289Z,2.80
2023-12-05T21:06:57.949Z,3.30
2023-12-05T21:09:24.625Z,3.07
2023-12-05T21:11:51.158Z,3.20
2023-12-05T21:14:17.659Z,4.17
2023-12-05T21:16:44.299Z,3.20
2023-12-05T21:19:11.150Z,3.17
2023-12-05T21:21:37.774Z,3.10
2023-12-05T21:24:04.517Z,3.50
2023-12-05T21:26:30.920Z,3.00
2023-12-05T21:28:57.305Z,3.23
2023-12-05T21:31:23.685Z,3.43
2023-12-05T21:33:51.074Z,4.50
2023-12-05T21:36:24.945Z,3.97
2023-12-05T21:38:55.652Z,3.97
2023-12-05T21:41:23.857Z,3.70
2023-12-05T21:43:51.848Z,3.20
2023-12-05T21:46:29.804Z,3.63
2023-12-05T21:48:57.347Z,4.00
2023-12-05T21:51:24.032Z,3.60
2023-12-05T21:53:50.619Z,3.50
2023-12-05T21:56:17.417Z,4.00
2023-12-05T21:58:44.074Z,3.80
2023-12-05T22:01:15.483Z,4.37
2023-12-05T22:03:43.460Z,3.43
2023-12-05T22:06:11.133Z,4.30
2023-12-05T22:08:37.746Z,3.23
2023-12-05T22:11:05.996Z,4.10
2023-12-05T22:13:33.263Z,4.27
2023-12-05T22:16:01.002Z,3.87
2023-12-05T22:18:27.826Z,4.03
2023-12-05T22:20:55.153Z,4.00
2023-12-05T22:23:21.656Z,3.80
2023-12-05T22:25:49.460Z,4.07
2023-12-05T22:28:16.051Z,3.70
2023-12-05T22:30:42.534Z,4.13
2023-12-05T22:33:09.508Z,3.53
2023-12-05T22:35:38.574Z,4.10
2023-12-05T22:38:04.957Z,4.17
2023-12-05T22:40:31.750Z,3.53
2023-12-05T22:42:58.180Z,3.90
2023-12-05T22:45:24.572Z,4.10
2023-12-05T22:47:51.015Z,3.47
2023-12-05T22:50:17.510Z,3.97
2023-12-05T22:52:43.955Z,3.73
2023-12-05T22:55:11.292Z,3.80
2023-12-05T22:57:37.769Z,3.80
2023-12-05T23:00:07.162Z,3.80
2023-12-05T23:02:33.787Z,3.33
2023-12-05T23:05:00.342Z,4.50
2023-12-05T23:07:26.751Z,4.17
2023-12-05T23:09:53.151Z,3.50
2023-12-05T23:12:19.987Z,4.30
2023-12-05T23:14:46.599Z,3.90
2023-12-05T23:17:13.650Z,3.20
2023-12-05T23:19:40.351Z,3.23
2023-12-05T23:22:06.764Z,4.23
2023-12-05T23:24:33.273Z,3.40
2023-12-05T23:26:59.715Z,3.63
2023-12-05T23:29:26.278Z,3.67
2023-12-05T23:31:52.825Z,4.33
2023-12-05T23:34:19.354Z,3.67
2023-12-05T23:36:46.628Z,3.90
2023-12-05T23:39:13.026Z,3.60
2023-12-05T23:41:39.786Z,3.83
2023-12-05T23:44:06.237Z,3.50
2023-12-05T23:46:32.631Z,3.50
2023-12-05T23:48:59.103Z,3.67
2023-12-05T23:51:25.564Z,3.10
2023-12-05T23:53:54.021Z,2.70
2023-12-05T23:56:20.531Z,3.03
2023-12-05T23:58:46.942Z,3.13
